sensor_id;sensor_type;location;lat;lon;timestamp;pressure;altitude;pressure_sealevel;temperature;humidity
15193;BME280;7697;51.630;7.484;2023-04-28T00:00:37;100677.59;;;11.38;56.09
15193;BME280;7697;51.630;7.484;2023-04-28T00:05:39;100673.31;;;11.31;56.01
15193;BME280;7697;51.630;7.484;2023-04-28T00:10:43;100671.09;;;11.34;56.41
15193;BME280;7697;51.630;7.484;2023-04-28T00:15:45;100663.75;;;11.36;56.28
15193;BME280;7697;51.630;7.484;2023-04-28T00:20:47;100658.84;;;11.40;56.30
15193;BME280;7697;51.630;7.484;2023-04-28T00:25:51;100650.06;;;11.33;56.67
15193;BME280;7697;51.630;7.484;2023-04-28T00:30:53;100643.72;;;11.20;56.57
15193;BME280;7697;51.630;7.484;2023-04-28T00:35:58;100626.59;;;11.16;57.34
15193;BME280;7697;51.630;7.484;2023-04-28T00:41:02;100615.19;;;11.09;57.73
15193;BME280;7697;51.630;7.484;2023-04-28T00:46:04;100617.03;;;11.15;57.54
15193;BME280;7697;51.630;7.484;2023-04-28T00:51:06;100611.50;;;11.10;57.65
15193;BME280;7697;51.630;7.484;2023-04-28T00:56:10;100611.91;;;11.14;58.38
15193;BME280;7697;51.630;7.484;2023-04-28T01:01:12;100598.22;;;11.10;58.54
15193;BME280;7697;51.630;7.484;2023-04-28T01:06:15;100589.69;;;11.08;58.20
15193;BME280;7697;51.630;7.484;2023-04-28T01:11:18;100597.63;;;11.02;58.94
15193;BME280;7697;51.630;7.484;2023-04-28T01:16:20;100601.91;;;11.03;59.01
15193;BME280;7697;51.630;7.484;2023-04-28T01:21:25;100602.53;;;10.98;59.22
15193;BME280;7697;51.630;7.484;2023-04-28T01:26:29;100598.44;;;10.96;59.56
15193;BME280;7697;51.630;7.484;2023-04-28T01:31:31;100594.97;;;10.95;59.93
15193;BME280;7697;51.630;7.484;2023-04-28T01:36:33;100587.81;;;10.89;60.86
15193;BME280;7697;51.630;7.484;2023-04-28T01:41:36;100581.28;;;10.78;62.87
15193;BME280;7697;51.630;7.484;2023-04-28T01:46:38;100575.97;;;10.78;63.64
15193;BME280;7697;51.630;7.484;2023-04-28T01:51:40;100569.88;;;10.84;63.74
15193;BME280;7697;51.630;7.484;2023-04-28T01:56:43;100579.25;;;10.87;64.45
15193;BME280;7697;51.630;7.484;2023-04-28T02:01:45;100571.50;;;10.79;64.53
15193;BME280;7697;51.630;7.484;2023-04-28T02:06:46;100565.19;;;10.80;65.16
15193;BME280;7697;51.630;7.484;2023-04-28T02:11:49;100578.44;;;10.80;65.93
15193;BME280;7697;51.630;7.484;2023-04-28T02:16:51;100568.84;;;10.79;66.48
15193;BME280;7697;51.630;7.484;2023-04-28T02:21:53;100563.53;;;10.72;66.66
15193;BME280;7697;51.630;7.484;2023-04-28T02:26:56;100558.84;;;10.68;67.50
15193;BME280;7697;51.630;7.484;2023-04-28T02:31:58;100551.50;;;10.70;68.06
15193;BME280;7697;51.630;7.484;2023-04-28T02:37:00;100552.72;;;10.67;67.98
15193;BME280;7697;51.630;7.484;2023-04-28T02:42:03;100537.84;;;10.60;68.83
15193;BME280;7697;51.630;7.484;2023-04-28T02:47:05;100551.69;;;10.62;69.19
15193;BME280;7697;51.630;7.484;2023-04-28T02:52:06;100550.25;;;10.59;70.38
15193;BME280;7697;51.630;7.484;2023-04-28T02:57:10;100547.59;;;10.59;71.36
15193;BME280;7697;51.630;7.484;2023-04-28T03:02:12;100550.44;;;10.58;72.18
15193;BME280;7697;51.630;7.484;2023-04-28T03:07:15;100542.31;;;10.59;72.38
15193;BME280;7697;51.630;7.484;2023-04-28T03:12:18;100534.38;;;10.59;72.91
15193;BME280;7697;51.630;7.484;2023-04-28T03:17:20;100544.38;;;10.64;74.22
15193;BME280;7697;51.630;7.484;2023-04-28T03:22:21;100525.19;;;10.55;74.51
15193;BME280;7697;51.630;7.484;2023-04-28T03:27:25;100515.19;;;10.37;76.26
15193;BME280;7697;51.630;7.484;2023-04-28T03:32:27;100517.19;;;10.29;77.47
15193;BME280;7697;51.630;7.484;2023-04-28T03:37:29;100517.78;;;10.24;78.65
15193;BME280;7697;51.630;7.484;2023-04-28T03:42:32;100514.63;;;10.14;79.32
15193;BME280;7697;51.630;7.484;2023-04-28T03:47:34;100509.53;;;10.12;80.70
15193;BME280;7697;51.630;7.484;2023-04-28T03:52:35;100495.50;;;10.12;80.49
15193;BME280;7697;51.630;7.484;2023-04-28T03:57:38;100486.75;;;10.11;82.04
15193;BME280;7697;51.630;7.484;2023-04-28T04:02:40;100471.47;;;10.00;83.26
15193;BME280;7697;51.630;7.484;2023-04-28T04:07:42;100462.50;;;10.01;83.63
15193;BME280;7697;51.630;7.484;2023-04-28T04:12:49;100464.94;;;10.03;84.15
15193;BME280;7697;51.630;7.484;2023-04-28T04:17:50;100466.19;;;10.07;84.53
15193;BME280;7697;51.630;7.484;2023-04-28T04:22:52;100451.13;;;10.07;85.70
15193;BME280;7697;51.630;7.484;2023-04-28T04:27:55;100456.41;;;10.07;86.39
15193;BME280;7697;51.630;7.484;2023-04-28T04:32:57;100441.34;;;10.01;87.61
15193;BME280;7697;51.630;7.484;2023-04-28T04:37:59;100446.66;;;10.08;87.65
15193;BME280;7697;51.630;7.484;2023-04-28T04:43:03;100437.09;;;10.13;87.35
15193;BME280;7697;51.630;7.484;2023-04-28T04:48:05;100440.56;;;10.14;87.60
15193;BME280;7697;51.630;7.484;2023-04-28T04:53:07;100430.81;;;10.21;87.78
15193;BME280;7697;51.630;7.484;2023-04-28T04:58:10;100425.94;;;10.18;88.37
15193;BME280;7697;51.630;7.484;2023-04-28T05:03:12;100443.28;;;10.27;88.64
15193;BME280;7697;51.630;7.484;2023-04-28T05:08:13;100440.22;;;10.30;89.00
15193;BME280;7697;51.630;7.484;2023-04-28T05:13:17;100437.38;;;10.32;88.95
15193;BME280;7697;51.630;7.484;2023-04-28T05:18:18;100435.75;;;10.37;89.64
15193;BME280;7697;51.630;7.484;2023-04-28T05:23:20;100423.13;;;10.39;90.17
15193;BME280;7697;51.630;7.484;2023-04-28T05:28:24;100424.75;;;10.40;90.33
15193;BME280;7697;51.630;7.484;2023-04-28T05:33:26;100426.81;;;10.45;91.07
15193;BME280;7697;51.630;7.484;2023-04-28T05:38:28;100423.53;;;10.49;91.56
15193;BME280;7697;51.630;7.484;2023-04-28T05:43:32;100412.31;;;10.47;92.20
15193;BME280;7697;51.630;7.484;2023-04-28T05:48:34;100421.13;;;10.55;93.07
15193;BME280;7697;51.630;7.484;2023-04-28T05:53:36;100413.75;;;10.57;93.91
15193;BME280;7697;51.630;7.484;2023-04-28T05:58:39;100405.84;;;10.63;94.11
15193;BME280;7697;51.630;7.484;2023-04-28T06:03:44;100411.31;;;10.75;94.12
15193;BME280;7697;51.630;7.484;2023-04-28T06:08:45;100398.28;;;10.80;94.62
15193;BME280;7697;51.630;7.484;2023-04-28T06:13:49;100398.28;;;10.86;94.23
15193;BME280;7697;51.630;7.484;2023-04-28T06:18:51;100391.94;;;10.94;94.72
15193;BME280;7697;51.630;7.484;2023-04-28T06:23:53;100392.97;;;11.06;94.74
15193;BME280;7697;51.630;7.484;2023-04-28T06:28:56;100384.38;;;11.11;94.81
15193;BME280;7697;51.630;7.484;2023-04-28T06:33:58;100392.09;;;11.19;94.49
15193;BME280;7697;51.630;7.484;2023-04-28T06:39:00;100391.91;;;11.27;94.74
15193;BME280;7697;51.630;7.484;2023-04-28T06:44:03;100378.63;;;11.34;94.71
15193;BME280;7697;51.630;7.484;2023-04-28T06:49:06;100376.16;;;11.39;95.40
15193;BME280;7697;51.630;7.484;2023-04-28T06:54:08;100366.13;;;11.47;95.39
15193;BME280;7697;51.630;7.484;2023-04-28T06:59:12;100361.59;;;11.54;96.44
15193;BME280;7697;51.630;7.484;2023-04-28T07:04:14;100364.25;;;11.61;96.49
15193;BME280;7697;51.630;7.484;2023-04-28T07:09:15;100351.97;;;11.66;96.93
15193;BME280;7697;51.630;7.484;2023-04-28T07:14:19;100351.75;;;11.68;97.39
15193;BME280;7697;51.630;7.484;2023-04-28T07:19:21;100345.63;;;11.68;97.32
15193;BME280;7697;51.630;7.484;2023-04-28T07:24:23;100349.72;;;11.70;97.34
15193;BME280;7697;51.630;7.484;2023-04-28T07:29:29;100352.16;;;11.78;97.60
15193;BME280;7697;51.630;7.484;2023-04-28T07:34:33;100364.38;;;11.79;98.23
15193;BME280;7697;51.630;7.484;2023-04-28T07:39:35;100362.09;;;11.83;97.96
15193;BME280;7697;51.630;7.484;2023-04-28T07:44:40;100364.09;;;11.94;97.50
15193;BME280;7697;51.630;7.484;2023-04-28T07:49:42;100352.81;;;12.05;97.37
15193;BME280;7697;51.630;7.484;2023-04-28T07:54:44;100350.69;;;12.14;97.49
15193;BME280;7697;51.630;7.484;2023-04-28T07:59:47;100353.56;;;12.37;97.02
15193;BME280;7697;51.630;7.484;2023-04-28T08:04:49;100352.66;;;12.50;96.67
15193;BME280;7697;51.630;7.484;2023-04-28T08:09:51;100369.69;;;12.67;96.99
15193;BME280;7697;51.630;7.484;2023-04-28T08:14:55;100362.03;;;12.77;96.48
15193;BME280;7697;51.630;7.484;2023-04-28T08:19:57;100361.59;;;12.98;96.00
15193;BME280;7697;51.630;7.484;2023-04-28T08:24:59;100369.88;;;13.15;95.38
15193;BME280;7697;51.630;7.484;2023-04-28T08:30:03;100365.00;;;13.30;94.75
15193;BME280;7697;51.630;7.484;2023-04-28T08:35:09;100369.41;;;13.36;94.80
15193;BME280;7697;51.630;7.484;2023-04-28T08:40:14;100354.94;;;13.50;93.82
15193;BME280;7697;51.630;7.484;2023-04-28T08:45:18;100342.63;;;13.68;94.14
15193;BME280;7697;51.630;7.484;2023-04-28T08:50:21;100341.91;;;13.90;94.06
15193;BME280;7697;51.630;7.484;2023-04-28T08:55:23;100337.25;;;14.27;93.66
15193;BME280;7697;51.630;7.484;2023-04-28T09:00:27;100344.25;;;15.10;91.96
15193;BME280;7697;51.630;7.484;2023-04-28T09:05:29;100343.22;;;15.51;89.92
15193;BME280;7697;51.630;7.484;2023-04-28T09:10:31;100339.81;;;15.67;88.67
15193;BME280;7697;51.630;7.484;2023-04-28T09:15:36;100322.66;;;15.92;87.94
15193;BME280;7697;51.630;7.484;2023-04-28T09:20:40;100327.13;;;16.36;87.56
15193;BME280;7697;51.630;7.484;2023-04-28T09:26:01;100317.22;;;16.87;85.59
15193;BME280;7697;51.630;7.484;2023-04-28T09:31:04;100309.75;;;17.11;84.49
15193;BME280;7697;51.630;7.484;2023-04-28T09:36:06;100305.84;;;16.97;84.72
15193;BME280;7697;51.630;7.484;2023-04-28T09:41:08;100322.31;;;17.10;84.96
15193;BME280;7697;51.630;7.484;2023-04-28T09:46:27;100317.44;;;17.24;84.27
15193;BME280;7697;51.630;7.484;2023-04-28T09:51:29;100308.25;;;17.42;83.70
15193;BME280;7697;51.630;7.484;2023-04-28T09:56:33;100306.22;;;17.54;83.53
15193;BME280;7697;51.630;7.484;2023-04-28T10:01:39;100312.72;;;17.58;82.78
15193;BME280;7697;51.630;7.484;2023-04-28T10:06:43;100305.88;;;17.67;83.01
15193;BME280;7697;51.630;7.484;2023-04-28T10:11:45;100307.00;;;17.71;82.56
15193;BME280;7697;51.630;7.484;2023-04-28T10:16:49;100294.16;;;17.73;82.73
15193;BME280;7697;51.630;7.484;2023-04-28T10:22:01;100294.16;;;17.73;82.72
15193;BME280;7697;51.630;7.484;2023-04-28T10:27:08;100286.06;;;17.68;82.63
15193;BME280;7697;51.630;7.484;2023-04-28T10:32:22;100289.41;;;17.80;82.38
15193;BME280;7697;51.630;7.484;2023-04-28T10:43:01;100280.47;;;18.33;81.42
15193;BME280;7697;51.630;7.484;2023-04-28T10:48:05;100288.97;;;18.57;80.78
15193;BME280;7697;51.630;7.484;2023-04-28T10:53:07;100272.53;;;18.49;80.67
15193;BME280;7697;51.630;7.484;2023-04-28T10:58:30;100286.03;;;18.59;80.11
15193;BME280;7697;51.630;7.484;2023-04-28T11:03:47;100275.56;;;18.62;79.75
15193;BME280;7697;51.630;7.484;2023-04-28T11:08:50;100274.00;;;18.66;80.00
15193;BME280;7697;51.630;7.484;2023-04-28T11:13:53;100262.84;;;18.85;80.51
15193;BME280;7697;51.630;7.484;2023-04-28T11:18:59;100275.19;;;18.86;79.49
15193;BME280;7697;51.630;7.484;2023-04-28T11:24:08;100267.59;;;18.72;80.14
15193;BME280;7697;51.630;7.484;2023-04-28T11:29:11;100261.91;;;18.64;80.43
15193;BME280;7697;51.630;7.484;2023-04-28T11:34:18;100269.59;;;18.55;80.29
15193;BME280;7697;51.630;7.484;2023-04-28T11:39:25;100273.81;;;18.41;80.94
15193;BME280;7697;51.630;7.484;2023-04-28T11:44:30;100275.28;;;18.22;82.26
15193;BME280;7697;51.630;7.484;2023-04-28T11:49:42;100274.56;;;17.99;84.09
15193;BME280;7697;51.630;7.484;2023-04-28T11:54:44;100269.66;;;17.91;84.92
15193;BME280;7697;51.630;7.484;2023-04-28T11:59:46;100280.13;;;17.93;85.25
15193;BME280;7697;51.630;7.484;2023-04-28T12:04:49;100287.00;;;17.79;86.18
15193;BME280;7697;51.630;7.484;2023-04-28T12:10:09;100287.69;;;17.69;87.39
15193;BME280;7697;51.630;7.484;2023-04-28T12:15:11;100284.13;;;17.63;88.32
15193;BME280;7697;51.630;7.484;2023-04-28T12:20:35;100292.19;;;17.42;89.54
15193;BME280;7697;51.630;7.484;2023-04-28T12:25:42;100290.34;;;17.42;90.33
15193;BME280;7697;51.630;7.484;2023-04-28T12:30:44;100291.47;;;17.24;91.90
15193;BME280;7697;51.630;7.484;2023-04-28T12:35:47;100293.78;;;17.16;92.60
15193;BME280;7697;51.630;7.484;2023-04-28T12:40:49;100294.50;;;17.11;93.60
15193;BME280;7697;51.630;7.484;2023-04-28T12:45:51;100302.53;;;17.11;93.78
15193;BME280;7697;51.630;7.484;2023-04-28T12:50:55;100300.44;;;17.13;94.15
15193;BME280;7697;51.630;7.484;2023-04-28T12:55:57;100294.47;;;17.06;94.65
15193;BME280;7697;51.630;7.484;2023-04-28T13:00:58;100295.63;;;17.15;94.76
15193;BME280;7697;51.630;7.484;2023-04-28T13:06:02;100303.97;;;17.19;94.45
15193;BME280;7697;51.630;7.484;2023-04-28T13:11:04;100302.09;;;17.19;95.06
15193;BME280;7697;51.630;7.484;2023-04-28T13:16:05;100292.19;;;17.20;94.31
15193;BME280;7697;51.630;7.484;2023-04-28T13:21:09;100295.75;;;17.25;94.24
15193;BME280;7697;51.630;7.484;2023-04-28T13:26:11;100289.34;;;17.27;94.32
15193;BME280;7697;51.630;7.484;2023-04-28T13:31:13;100278.66;;;17.27;94.82
15193;BME280;7697;51.630;7.484;2023-04-28T13:36:16;100271.78;;;17.36;94.96
15193;BME280;7697;51.630;7.484;2023-04-28T13:41:18;100247.94;;;17.61;95.36
15193;BME280;7697;51.630;7.484;2023-04-28T13:46:20;100240.25;;;17.96;93.97
15193;BME280;7697;51.630;7.484;2023-04-28T13:51:23;100228.66;;;18.28;93.12
15193;BME280;7697;51.630;7.484;2023-04-28T13:56:25;100239.22;;;18.45;91.77
15193;BME280;7697;51.630;7.484;2023-04-28T14:01:27;100239.03;;;18.51;90.83
15193;BME280;7697;51.630;7.484;2023-04-28T14:06:32;100232.94;;;18.61;89.87
15193;BME280;7697;51.630;7.484;2023-04-28T14:11:34;100221.97;;;18.72;89.58
15193;BME280;7697;51.630;7.484;2023-04-28T14:16:35;100213.97;;;18.78;89.68
15193;BME280;7697;51.630;7.484;2023-04-28T14:21:38;100217.53;;;19.03;88.48
15193;BME280;7697;51.630;7.484;2023-04-28T14:26:40;100221.03;;;19.04;87.95
15193;BME280;7697;51.630;7.484;2023-04-28T14:31:43;100219.38;;;18.98;87.57
15193;BME280;7697;51.630;7.484;2023-04-28T14:36:46;100208.66;;;18.93;87.06
15193;BME280;7697;51.630;7.484;2023-04-28T14:41:48;100204.09;;;18.93;86.75
15193;BME280;7697;51.630;7.484;2023-04-28T14:46:50;100198.41;;;18.85;86.98
15193;BME280;7697;51.630;7.484;2023-04-28T14:51:54;100197.91;;;18.88;86.66
15193;BME280;7697;51.630;7.484;2023-04-28T14:56:55;100203.28;;;18.88;86.04
15193;BME280;7697;51.630;7.484;2023-04-28T15:01:57;100199.78;;;18.92;86.44
15193;BME280;7697;51.630;7.484;2023-04-28T15:07:01;100199.00;;;19.02;85.86
15193;BME280;7697;51.630;7.484;2023-04-28T15:12:03;100191.50;;;19.04;85.55
15193;BME280;7697;51.630;7.484;2023-04-28T15:17:05;100189.13;;;19.13;85.76
15193;BME280;7697;51.630;7.484;2023-04-28T15:22:09;100188.84;;;19.24;85.54
15193;BME280;7697;51.630;7.484;2023-04-28T15:27:10;100193.16;;;19.25;85.61
15193;BME280;7697;51.630;7.484;2023-04-28T15:32:12;100206.59;;;19.20;85.13
15193;BME280;7697;51.630;7.484;2023-04-28T15:37:39;100212.22;;;19.19;85.47
15193;BME280;7697;51.630;7.484;2023-04-28T15:42:42;100203.06;;;19.09;85.68
15193;BME280;7697;51.630;7.484;2023-04-28T15:47:48;100212.72;;;19.05;86.29
15193;BME280;7697;51.630;7.484;2023-04-28T15:52:52;100210.53;;;18.92;86.55
15193;BME280;7697;51.630;7.484;2023-04-28T15:57:54;100213.47;;;18.86;87.13
15193;BME280;7697;51.630;7.484;2023-04-28T16:02:57;100229.47;;;18.70;87.95
15193;BME280;7697;51.630;7.484;2023-04-28T16:08:01;100233.13;;;18.54;88.66
15193;BME280;7697;51.630;7.484;2023-04-28T16:13:03;100253.53;;;18.18;88.80
15193;BME280;7697;51.630;7.484;2023-04-28T16:18:10;100247.72;;;17.94;89.55
15193;BME280;7697;51.630;7.484;2023-04-28T16:23:13;100264.75;;;17.78;89.52
15193;BME280;7697;51.630;7.484;2023-04-28T16:28:15;100274.09;;;17.76;89.85
15193;BME280;7697;51.630;7.484;2023-04-28T16:33:17;100264.16;;;17.71;88.95
15193;BME280;7697;51.630;7.484;2023-04-28T16:38:20;100272.31;;;17.59;88.02
15193;BME280;7697;51.630;7.484;2023-04-28T16:43:22;100264.03;;;17.61;88.19
15193;BME280;7697;51.630;7.484;2023-04-28T16:48:24;100270.81;;;17.69;87.26
15193;BME280;7697;51.630;7.484;2023-04-28T16:53:27;100277.91;;;17.58;86.95
15193;BME280;7697;51.630;7.484;2023-04-28T16:58:29;100282.59;;;17.46;87.35
15193;BME280;7697;51.630;7.484;2023-04-28T17:03:31;100288.22;;;17.44;87.26
15193;BME280;7697;51.630;7.484;2023-04-28T17:08:35;100287.66;;;17.42;87.21
15193;BME280;7697;51.630;7.484;2023-04-28T17:13:36;100297.03;;;17.45;87.22
15193;BME280;7697;51.630;7.484;2023-04-28T17:18:39;100298.97;;;17.49;87.10
15193;BME280;7697;51.630;7.484;2023-04-28T17:23:43;100300.28;;;17.47;86.95
15193;BME280;7697;51.630;7.484;2023-04-28T17:28:44;100296.78;;;17.46;86.85
15193;BME280;7697;51.630;7.484;2023-04-28T17:33:48;100303.41;;;17.39;86.61
15193;BME280;7697;51.630;7.484;2023-04-28T17:38:52;100313.00;;;17.35;86.60
15193;BME280;7697;51.630;7.484;2023-04-28T17:43:53;100304.91;;;17.30;86.91
15193;BME280;7697;51.630;7.484;2023-04-28T17:48:55;100323.88;;;17.28;87.53
15193;BME280;7697;51.630;7.484;2023-04-28T17:54:00;100336.28;;;17.12;89.01
15193;BME280;7697;51.630;7.484;2023-04-28T17:59:02;100330.59;;;16.87;91.29
15193;BME280;7697;51.630;7.484;2023-04-28T18:04:04;100336.44;;;16.67;92.22
15193;BME280;7697;51.630;7.484;2023-04-28T18:09:07;100335.63;;;16.67;92.43
15193;BME280;7697;51.630;7.484;2023-04-28T18:14:09;100337.59;;;16.71;92.22
15193;BME280;7697;51.630;7.484;2023-04-28T18:19:11;100342.03;;;16.66;92.45
15193;BME280;7697;51.630;7.484;2023-04-28T18:24:14;100342.41;;;16.58;92.88
15193;BME280;7697;51.630;7.484;2023-04-28T18:29:16;100353.53;;;16.49;93.18
15193;BME280;7697;51.630;7.484;2023-04-28T18:34:19;100357.00;;;16.33;94.12
15193;BME280;7697;51.630;7.484;2023-04-28T18:39:23;100363.72;;;16.19;94.95
15193;BME280;7697;51.630;7.484;2023-04-28T18:44:25;100375.53;;;16.06;95.72
15193;BME280;7697;51.630;7.484;2023-04-28T18:49:27;100372.28;;;16.04;96.15
15193;BME280;7697;51.630;7.484;2023-04-28T18:54:30;100370.22;;;15.95;96.32
15193;BME280;7697;51.630;7.484;2023-04-28T18:59:32;100364.56;;;15.91;96.75
15193;BME280;7697;51.630;7.484;2023-04-28T19:04:34;100378.47;;;15.93;96.53
15193;BME280;7697;51.630;7.484;2023-04-28T19:09:40;100386.84;;;15.97;96.31
15193;BME280;7697;51.630;7.484;2023-04-28T19:14:42;100384.09;;;15.92;96.48
15193;BME280;7697;51.630;7.484;2023-04-28T19:19:44;100393.69;;;15.93;96.83
15193;BME280;7697;51.630;7.484;2023-04-28T19:24:47;100385.00;;;15.86;97.09
15193;BME280;7697;51.630;7.484;2023-04-28T19:29:49;100385.97;;;15.80;97.47
15193;BME280;7697;51.630;7.484;2023-04-28T19:34:51;100417.22;;;15.79;97.79
15193;BME280;7697;51.630;7.484;2023-04-28T19:39:55;100405.50;;;15.68;98.62
15193;BME280;7697;51.630;7.484;2023-04-28T19:44:57;100407.03;;;15.64;99.12
15193;BME280;7697;51.630;7.484;2023-04-28T19:49:59;100408.09;;;15.63;99.26
15193;BME280;7697;51.630;7.484;2023-04-28T19:55:03;100407.28;;;15.63;99.88
15193;BME280;7697;51.630;7.484;2023-04-28T20:00:08;100405.31;;;15.58;100.00
15193;BME280;7697;51.630;7.484;2023-04-28T20:05:10;100406.13;;;15.59;99.97
15193;BME280;7697;51.630;7.484;2023-04-28T20:10:16;100409.59;;;15.59;100.00
15193;BME280;7697;51.630;7.484;2023-04-28T20:15:19;100409.00;;;15.57;100.00
15193;BME280;7697;51.630;7.484;2023-04-28T20:20:21;100402.97;;;15.50;100.00
15193;BME280;7697;51.630;7.484;2023-04-28T20:25:24;100407.19;;;15.46;100.00
15193;BME280;7697;51.630;7.484;2023-04-28T20:30:27;100402.88;;;15.45;100.00
15193;BME280;7697;51.630;7.484;2023-04-28T20:35:29;100405.56;;;15.45;100.00
15193;BME280;7697;51.630;7.484;2023-04-28T20:40:32;100404.28;;;15.36;100.00
15193;BME280;7697;51.630;7.484;2023-04-28T20:45:36;100413.69;;;15.27;100.00
15193;BME280;7697;51.630;7.484;2023-04-28T20:50:38;100414.66;;;15.21;100.00
15193;BME280;7697;51.630;7.484;2023-04-28T20:55:43;100408.59;;;15.14;100.00
15193;BME280;7697;51.630;7.484;2023-04-28T21:00:45;100403.25;;;15.14;100.00
15193;BME280;7697;51.630;7.484;2023-04-28T21:43:31;100409.28;;;14.97;100.00
15193;BME280;7697;51.630;7.484;2023-04-28T21:48:33;100411.63;;;14.94;100.00
15193;BME280;7697;51.630;7.484;2023-04-28T21:53:34;100410.22;;;14.91;100.00
15193;BME280;7697;51.630;7.484;2023-04-28T21:58:38;100410.09;;;14.86;100.00
15193;BME280;7697;51.630;7.484;2023-04-28T22:04:03;100403.84;;;14.81;100.00
15193;BME280;7697;51.630;7.484;2023-04-28T22:09:07;100408.81;;;14.77;100.00
15193;BME280;7697;51.630;7.484;2023-04-28T22:14:11;100407.22;;;14.76;100.00
15193;BME280;7697;51.630;7.484;2023-04-28T22:19:12;100412.41;;;14.71;100.00
15193;BME280;7697;51.630;7.484;2023-04-28T22:24:14;100424.94;;;14.71;100.00
15193;BME280;7697;51.630;7.484;2023-04-28T22:29:17;100433.03;;;14.64;100.00
15193;BME280;7697;51.630;7.484;2023-04-28T22:34:21;100439.63;;;14.61;100.00
15193;BME280;7697;51.630;7.484;2023-04-28T22:39:23;100433.50;;;14.61;100.00
15193;BME280;7697;51.630;7.484;2023-04-28T22:44:27;100432.59;;;14.67;100.00
15193;BME280;7697;51.630;7.484;2023-04-28T22:49:29;100447.28;;;14.58;100.00
15193;BME280;7697;51.630;7.484;2023-04-28T22:54:31;100441.78;;;14.41;100.00
15193;BME280;7697;51.630;7.484;2023-04-28T22:59:35;100452.25;;;14.24;100.00
15193;BME280;7697;51.630;7.484;2023-04-28T23:04:36;100466.78;;;14.10;100.00
15193;BME280;7697;51.630;7.484;2023-04-28T23:09:38;100466.94;;;13.97;100.00
15193;BME280;7697;51.630;7.484;2023-04-28T23:14:41;100467.94;;;13.84;100.00
15193;BME280;7697;51.630;7.484;2023-04-28T23:19:46;100458.53;;;13.82;100.00
15193;BME280;7697;51.630;7.484;2023-04-28T23:24:48;100472.16;;;13.74;100.00
15193;BME280;7697;51.630;7.484;2023-04-28T23:29:52;100472.00;;;13.69;100.00
15193;BME280;7697;51.630;7.484;2023-04-28T23:34:54;100476.78;;;13.60;100.00
15193;BME280;7697;51.630;7.484;2023-04-28T23:39:56;100483.75;;;13.61;100.00
15193;BME280;7697;51.630;7.484;2023-04-28T23:44:59;100489.66;;;13.63;100.00
15193;BME280;7697;51.630;7.484;2023-04-28T23:50:01;100486.78;;;13.65;100.00
15193;BME280;7697;51.630;7.484;2023-04-28T23:55:04;100493.72;;;13.66;100.00
